Vandalia, Michigan
Current Conditions -  °F | °C
As of 7:50 AM on Saturday 25 Oct 2014 (Local Time) from KEKM Reporting Station
Haze Haze  
Wind Chill: 52°   Ceiling: Unl
Heat Index: 52°   Visibility: 5mi
Dew Point: 50°   Wind: 3mph
Humidity: 94%   Direction: 250°WSW
Pressure: 29.9"   Gusts: NA
Location:  41.92°N, 85.91°W
Report Text: KEKM 251150Z 25003KT 5SM BR CLR 11/10 A2990 RMK AO2
Loading
Personal Weather Stations






























Interactive Weather Map
Tropical Storm Tracking
New forecast layout! Learn more

10-Day Weather Forecast

Advertisements
Track Severe Weather on mobile